Time;durP1;ratioP1;P1;durP2;ratioP2;P2;SDS_P1;SDS_P2;PMS_P1;PMS_P2;Temp;Humidity;BMP_temperature;BMP_pressure;BME280_temperature;BME280_humidity;BME280_pressure;Samples;Min_cycle;Max_cycle;Signal;HPM_P1;HPM_P2
2023/07/11 00:00:23;;;;;;;7.93;3.22;;;;;;;;;;5224296;28;20432;-72
2023/07/11 00:02:53;;;;;;;7.50;3.60;;;;;;;;;;5223956;28;20029;-72
2023/07/11 00:05:24;;;;;;;11.63;3.55;;;;;;;;;;5226433;28;20475;-72
2023/07/11 00:07:54;;;;;;;5.38;3.80;;;;;;;;;;5227622;28;20032;-72
2023/07/11 00:10:24;;;;;;;8.25;4.15;;;;;;;;;;5227610;28;20025;-72
2023/07/11 00:12:55;;;;;;;8.10;4.10;;;;;;;;;;5227769;28;20037;-72
2023/07/11 00:15:25;;;;;;;10.40;4.18;;;;;;;;;;5227899;28;20029;-72
2023/07/11 00:17:55;;;;;;;6.22;3.60;;;;;;;;;;5227079;28;20028;-72
2023/07/11 00:20:26;;;;;;;9.43;3.38;;;;;;;;;;5227852;28;20036;-72
2023/07/11 00:22:56;;;;;;;5.68;3.10;;;;;;;;;;5228230;28;20063;-72
2023/07/11 00:25:26;;;;;;;5.90;3.35;;;;;;;;;;5227802;28;20021;-71
2023/07/11 00:27:56;;;;;;;8.45;3.47;;;;;;;;;;5227172;28;20013;-72
2023/07/11 00:30:27;;;;;;;4.68;2.90;;;;;;;;;;5227441;28;20047;-71
2023/07/11 00:32:57;;;;;;;6.70;3.63;;;;;;;;;;5227986;28;20017;-72
2023/07/11 00:35:28;;;;;;;10.73;3.40;;;;;;;;;;5227353;28;20087;-72
2023/07/11 00:37:58;;;;;;;4.55;3.10;;;;;;;;;;5227146;28;20017;-72
2023/07/11 00:40:29;;;;;;;7.93;3.60;;;;;;;;;;5227439;28;20020;-72
2023/07/11 00:43:00;;;;;;;6.18;3.13;;;;;;;;;;5227092;28;20483;-72
2023/07/11 00:45:48;;;;;;;12.90;3.60;;;;;;;;;;5227154;28;20037;-72
2023/07/11 00:48:20;;;;;;;7.75;3.97;;;;;;;;;;5226879;28;20075;-72
2023/07/11 00:50:51;;;;;;;9.07;4.25;;;;;;;;;;5227461;28;20107;-71
2023/07/11 00:53:22;;;;;;;7.32;3.70;;;;;;;;;;5226745;28;20492;-72
2023/07/11 00:55:54;;;;;;;5.50;3.22;;;;;;;;;;5215673;28;20017;-72
2023/07/11 00:58:25;;;;;;;8.43;3.95;;;;;;;;;;5224773;28;20017;-72
2023/07/11 01:00:55;;;;;;;6.93;4.05;;;;;;;;;;5227113;28;20027;-72
2023/07/11 01:03:26;;;;;;;7.90;4.20;;;;;;;;;;5227179;28;20021;-72
2023/07/11 01:05:57;;;;;;;9.23;4.22;;;;;;;;;;5226176;28;20032;-72
2023/07/11 01:08:27;;;;;;;8.25;3.65;;;;;;;;;;5227030;28;20024;-72
2023/07/11 01:10:57;;;;;;;10.18;4.75;;;;;;;;;;5226800;28;20074;-72
2023/07/11 01:13:28;;;;;;;10.80;4.32;;;;;;;;;;5227174;28;20021;-72
2023/07/11 01:15:58;;;;;;;8.27;4.32;;;;;;;;;;5225616;28;20375;-72
2023/07/11 01:18:28;;;;;;;7.75;4.15;;;;;;;;;;5226674;28;20044;-72
2023/07/11 01:20:59;;;;;;;9.73;4.60;;;;;;;;;;5226757;28;20028;-72
2023/07/11 01:23:29;;;;;;;10.88;4.28;;;;;;;;;;5226828;28;20505;-72
2023/07/11 01:26:02;;;;;;;8.23;4.35;;;;;;;;;;5226330;28;20024;-71
2023/07/11 01:28:32;;;;;;;8.10;4.28;;;;;;;;;;5226603;28;20059;-72
2023/07/11 01:31:03;;;;;;;10.55;4.68;;;;;;;;;;5226301;28;20650;-72
2023/07/11 01:33:34;;;;;;;8.73;4.53;;;;;;;;;;5226743;28;20108;-72
2023/07/11 01:36:04;;;;;;;8.48;3.85;;;;;;;;;;5226077;28;20091;-71
2023/07/11 01:38:34;;;;;;;9.77;4.60;;;;;;;;;;5226288;28;20021;-72
2023/07/11 01:41:05;;;;;;;8.90;4.20;;;;;;;;;;5226595;28;20028;-71
2023/07/11 01:43:36;;;;;;;14.27;4.68;;;;;;;;;;5226097;28;20048;-72
2023/07/11 01:46:06;;;;;;;6.25;4.57;;;;;;;;;;5226196;28;20052;-72
2023/07/11 01:48:36;;;;;;;9.63;4.30;;;;;;;;;;5226003;28;20013;-71
2023/07/11 01:51:07;;;;;;;8.27;4.93;;;;;;;;;;5226289;28;20036;-72
2023/07/11 01:53:37;;;;;;;9.95;5.15;;;;;;;;;;5225868;28;20009;-71
2023/07/11 01:56:07;;;;;;;10.32;5.40;;;;;;;;;;5225794;28;20727;-72
2023/07/11 01:58:38;;;;;;;12.77;5.43;;;;;;;;;;5225833;28;20012;-71
2023/07/11 02:01:08;;;;;;;12.23;5.22;;;;;;;;;;5225836;28;20500;-72
2023/07/11 02:03:38;;;;;;;7.38;5.40;;;;;;;;;;5225821;28;20106;-72
2023/07/11 02:06:09;;;;;;;13.65;4.43;;;;;;;;;;5225187;28;20100;-71
2023/07/11 02:08:39;;;;;;;4.82;3.22;;;;;;;;;;5224385;28;20035;-72
2023/07/11 02:11:09;;;;;;;9.60;5.22;;;;;;;;;;5225390;28;20024;-72
2023/07/11 02:13:40;;;;;;;10.43;5.38;;;;;;;;;;5225906;28;20099;-71
2023/07/11 02:16:10;;;;;;;9.63;4.75;;;;;;;;;;5225048;28;20025;-72
2023/07/11 02:18:41;;;;;;;9.68;4.40;;;;;;;;;;5225239;28;20057;-72
2023/07/11 02:21:11;;;;;;;11.18;5.25;;;;;;;;;;5225868;28;20056;-72
2023/07/11 02:23:41;;;;;;;5.93;4.18;;;;;;;;;;5225758;28;20025;-71
2023/07/11 02:26:15;;;;;;;10.23;5.05;;;;;;;;;;5225286;28;20083;-71
2023/07/11 02:28:45;;;;;;;7.55;4.10;;;;;;;;;;5225058;28;20021;-71
2023/07/11 02:31:15;;;;;;;10.13;5.07;;;;;;;;;;5225860;28;20025;-71
2023/07/11 02:33:47;;;;;;;10.45;4.63;;;;;;;;;;5225213;28;20485;-72
2023/07/11 02:36:18;;;;;;;7.43;4.40;;;;;;;;;;5224921;28;20071;-71
2023/07/11 02:38:48;;;;;;;7.28;3.95;;;;;;;;;;5225110;28;20429;-72
2023/07/11 02:41:18;;;;;;;7.72;4.05;;;;;;;;;;5225365;28;20021;-71
2023/07/11 02:43:49;;;;;;;7.78;4.55;;;;;;;;;;5224709;28;20013;-71
2023/07/11 02:46:19;;;;;;;7.38;4.18;;;;;;;;;;5224914;28;20171;-71
2023/07/11 02:48:49;;;;;;;33.58;5.53;;;;;;;;;;5224588;28;20489;-72
2023/07/11 02:51:20;;;;;;;6.70;4.38;;;;;;;;;;5225137;28;20028;-72
2023/07/11 02:53:51;;;;;;;6.75;4.30;;;;;;;;;;5224912;28;20017;-72
2023/07/11 02:56:21;;;;;;;7.85;4.22;;;;;;;;;;5210565;28;20022;-72
2023/07/11 02:58:52;;;;;;;5.53;4.05;;;;;;;;;;5224816;28;20027;-72
2023/07/11 03:01:22;;;;;;;7.57;4.25;;;;;;;;;;5224865;28;20035;-72
2023/07/11 03:03:52;;;;;;;8.05;5.05;;;;;;;;;;5224727;28;20039;-72
2023/07/11 03:06:23;;;;;;;7.45;4.45;;;;;;;;;;5224482;28;20138;-72
2023/07/11 03:08:53;;;;;;;7.25;4.20;;;;;;;;;;5224253;28;20013;-71
2023/07/11 03:11:23;;;;;;;10.50;4.72;;;;;;;;;;5224420;28;20059;-71
2023/07/11 03:13:54;;;;;;;8.13;5.40;;;;;;;;;;5224782;28;20017;-72
2023/07/11 03:16:24;;;;;;;7.72;5.25;;;;;;;;;;5224189;28;20127;-71
2023/07/11 03:18:54;;;;;;;7.40;4.22;;;;;;;;;;5224454;28;20390;-71
2023/07/11 03:21:25;;;;;;;7.78;4.68;;;;;;;;;;5224463;28;20025;-71
2023/07/11 03:23:55;;;;;;;9.80;4.75;;;;;;;;;;5224543;28;20021;-72
2023/07/11 03:26:25;;;;;;;12.40;4.70;;;;;;;;;;5224214;28;20039;-71
2023/07/11 03:28:55;;;;;;;10.02;4.90;;;;;;;;;;5224254;28;20021;-72
2023/07/11 03:31:26;;;;;;;11.80;5.25;;;;;;;;;;5225061;28;20020;-72
2023/07/11 03:33:56;;;;;;;6.72;4.38;;;;;;;;;;5224178;28;20075;-72
2023/07/11 03:36:26;;;;;;;6.95;4.97;;;;;;;;;;5224070;28;20026;-72
2023/07/11 03:38:56;;;;;;;11.82;5.70;;;;;;;;;;5224926;28;20025;-71
2023/07/11 03:41:27;;;;;;;5.95;3.97;;;;;;;;;;5228902;28;20013;-71
2023/07/11 03:43:57;;;;;;;5.72;4.13;;;;;;;;;;5228665;28;20013;-71
2023/07/11 03:46:28;;;;;;;7.97;3.78;;;;;;;;;;5227890;28;20020;-71
2023/07/11 03:48:59;;;;;;;10.27;4.25;;;;;;;;;;5228086;28;20036;-71
2023/07/11 03:51:30;;;;;;;10.20;4.60;;;;;;;;;;5228540;28;20111;-71
2023/07/11 03:54:00;;;;;;;8.63;4.20;;;;;;;;;;5228398;28;20534;-72
2023/07/11 03:56:31;;;;;;;8.35;5.13;;;;;;;;;;5227792;28;20032;-72
2023/07/11 03:59:01;;;;;;;8.75;5.35;;;;;;;;;;5227879;28;20021;-72
2023/07/11 04:01:31;;;;;;;8.63;5.47;;;;;;;;;;5228414;28;20033;-72
2023/07/11 04:04:02;;;;;;;10.20;5.15;;;;;;;;;;5228433;28;20036;-71
2023/07/11 04:06:32;;;;;;;5.97;3.67;;;;;;;;;;5227920;28;20055;-71
2023/07/11 04:09:02;;;;;;;6.28;4.20;;;;;;;;;;5228053;28;20017;-71
2023/07/11 04:11:33;;;;;;;7.95;4.82;;;;;;;;;;5227623;28;20040;-71
2023/07/11 04:14:03;;;;;;;11.98;4.85;;;;;;;;;;5228093;28;20482;-71
2023/07/11 04:16:34;;;;;;;9.05;5.97;;;;;;;;;;5227417;28;20078;-71
2023/07/11 04:19:04;;;;;;;8.75;4.50;;;;;;;;;;5227857;28;20067;-71
2023/07/11 04:21:35;;;;;;;6.68;4.55;;;;;;;;;;5227947;28;20388;-72
2023/07/11 04:24:05;;;;;;;8.73;4.93;;;;;;;;;;5227652;28;20017;-72
2023/07/11 04:26:36;;;;;;;9.45;4.65;;;;;;;;;;5227516;28;20025;-71
2023/07/11 04:29:06;;;;;;;6.00;4.47;;;;;;;;;;5227766;28;20027;-71
2023/07/11 04:31:36;;;;;;;8.80;4.50;;;;;;;;;;5228322;28;20031;-72
2023/07/11 04:34:07;;;;;;;9.20;5.50;;;;;;;;;;5227253;28;20021;-72
2023/07/11 04:36:37;;;;;;;12.07;5.35;;;;;;;;;;5227101;28;20475;-71
2023/07/11 04:39:07;;;;;;;10.32;4.65;;;;;;;;;;5227559;28;20078;-71
2023/07/11 04:41:38;;;;;;;7.75;4.85;;;;;;;;;;5227429;28;20433;-72
2023/07/11 04:44:09;;;;;;;8.15;4.25;;;;;;;;;;5228055;28;20053;-72
2023/07/11 04:46:39;;;;;;;11.85;4.93;;;;;;;;;;5226512;28;20049;-72
2023/07/11 04:49:09;;;;;;;5.18;3.80;;;;;;;;;;5227165;28;20072;-71
2023/07/11 04:51:40;;;;;;;12.80;4.25;;;;;;;;;;5225957;28;20094;-72
2023/07/11 04:54:10;;;;;;;7.80;3.70;;;;;;;;;;5227416;28;20017;-72
2023/07/11 04:56:40;;;;;;;10.10;3.70;;;;;;;;;;5213077;28;20489;-71
2023/07/11 04:59:11;;;;;;;8.57;3.88;;;;;;;;;;5227291;28;20037;-71
2023/07/11 05:01:41;;;;;;;7.85;3.50;;;;;;;;;;5227107;28;20036;-72
2023/07/11 05:04:11;;;;;;;7.35;3.58;;;;;;;;;;5227138;28;20029;-72
2023/07/11 05:06:42;;;;;;;8.95;3.38;;;;;;;;;;5226537;28;20531;-71
2023/07/11 05:09:14;;;;;;;6.38;3.42;;;;;;;;;;5226852;28;20029;-72
2023/07/11 05:11:44;;;;;;;6.15;3.15;;;;;;;;;;5226518;28;20013;-71
2023/07/11 05:14:15;;;;;;;9.65;3.05;;;;;;;;;;5227154;28;20008;-72
2023/07/11 05:16:45;;;;;;;8.45;3.42;;;;;;;;;;5226198;28;20024;-72
2023/07/11 05:19:16;;;;;;;9.52;3.38;;;;;;;;;;5226712;28;20125;-71
2023/07/11 05:21:46;;;;;;;4.20;3.13;;;;;;;;;;5226854;28;20467;-72
2023/07/11 05:24:16;;;;;;;8.02;2.83;;;;;;;;;;5226941;28;20482;-72
2023/07/11 05:26:47;;;;;;;8.25;3.60;;;;;;;;;;5226410;28;20021;-72
2023/07/11 05:29:17;;;;;;;10.68;2.83;;;;;;;;;;5226417;28;20013;-72
2023/07/11 05:31:47;;;;;;;8.27;2.72;;;;;;;;;;5226840;28;20021;-72
2023/07/11 05:34:17;;;;;;;5.80;3.00;;;;;;;;;;5226728;28;20466;-72
2023/07/11 05:36:48;;;;;;;7.57;3.08;;;;;;;;;;5225863;28;20028;-72
2023/07/11 05:39:18;;;;;;;15.55;3.35;;;;;;;;;;5226447;28;20375;-72
2023/07/11 05:41:49;;;;;;;6.72;2.88;;;;;;;;;;5226536;28;20040;-72
2023/07/11 05:44:20;;;;;;;9.60;2.97;;;;;;;;;;5226587;28;20480;-72
2023/07/11 05:46:50;;;;;;;10.98;2.85;;;;;;;;;;5225832;28;20103;-72
2023/07/11 05:49:20;;;;;;;13.55;3.58;;;;;;;;;;5225749;28;20033;-72
2023/07/11 05:51:51;;;;;;;7.72;3.13;;;;;;;;;;5226358;28;20020;-71
2023/07/11 05:54:21;;;;;;;5.85;2.47;;;;;;;;;;5226252;28;20036;-72
2023/07/11 05:56:51;;;;;;;7.13;3.03;;;;;;;;;;5212324;28;20100;-72
2023/07/11 05:59:22;;;;;;;11.32;3.10;;;;;;;;;;5226103;28;20024;-72
2023/07/11 06:01:52;;;;;;;9.35;3.17;;;;;;;;;;5225076;28;20068;-72
2023/07/11 06:04:22;;;;;;;12.00;3.05;;;;;;;;;;5225876;28;20052;-72
2023/07/11 06:06:52;;;;;;;10.55;2.88;;;;;;;;;;5226049;28;20029;-72
2023/07/11 06:09:24;;;;;;;9.68;2.83;;;;;;;;;;5225672;28;20021;-72
2023/07/11 06:11:55;;;;;;;7.40;2.97;;;;;;;;;;5225650;28;20463;-72
2023/07/11 06:14:25;;;;;;;8.65;2.70;;;;;;;;;;5225466;28;20024;-72
2023/07/11 06:16:55;;;;;;;10.30;2.83;;;;;;;;;;5223730;28;20108;-72
2023/07/11 06:19:26;;;;;;;8.60;2.50;;;;;;;;;;5225652;28;20402;-72
2023/07/11 06:21:56;;;;;;;9.18;2.72;;;;;;;;;;5225776;28;20032;-73
2023/07/11 06:24:26;;;;;;;10.30;2.25;;;;;;;;;;5225355;28;20486;-72
2023/07/11 06:26:57;;;;;;;12.02;2.40;;;;;;;;;;5224833;28;20040;-73
2023/07/11 06:29:29;;;;;;;6.57;2.58;;;;;;;;;;5225309;28;20032;-73
2023/07/11 06:31:59;;;;;;;7.63;3.03;;;;;;;;;;5225406;28;20041;-73
2023/07/11 06:34:29;;;;;;;7.65;2.65;;;;;;;;;;5225525;28;20013;-73
2023/07/11 06:36:59;;;;;;;6.37;2.70;;;;;;;;;;5224547;28;20017;-73
2023/07/11 06:39:30;;;;;;;8.20;2.30;;;;;;;;;;5225191;28;20259;-71
2023/07/11 06:42:00;;;;;;;12.33;2.57;;;;;;;;;;5225180;28;20267;-71
2023/07/11 06:44:30;;;;;;;7.18;2.55;;;;;;;;;;5225334;28;20255;-71
2023/07/11 06:47:01;;;;;;;8.48;2.65;;;;;;;;;;5224565;28;20029;-71
2023/07/11 06:49:31;;;;;;;10.02;2.53;;;;;;;;;;5224641;28;20532;-71
2023/07/11 06:52:02;;;;;;;6.85;2.22;;;;;;;;;;5224766;28;20017;-71
2023/07/11 06:54:32;;;;;;;7.60;2.30;;;;;;;;;;5225005;28;20028;-71
2023/07/11 06:57:03;;;;;;;10.37;2.70;;;;;;;;;;5210298;28;20029;-71
2023/07/11 06:59:33;;;;;;;6.22;2.15;;;;;;;;;;5224900;28;20252;-71
2023/07/11 07:02:03;;;;;;;8.23;2.43;;;;;;;;;;5224694;28;20383;-71
2023/07/11 07:04:34;;;;;;;6.68;2.80;;;;;;;;;;5224756;28;20251;-71
2023/07/11 07:07:04;;;;;;;7.50;2.40;;;;;;;;;;5224520;28;20025;-71
2023/07/11 07:09:34;;;;;;;5.05;2.50;;;;;;;;;;5224677;28;20337;-71
2023/07/11 07:12:05;;;;;;;6.65;2.45;;;;;;;;;;5224624;28;20025;-71
2023/07/11 07:14:35;;;;;;;7.82;2.53;;;;;;;;;;5224096;28;20029;-72
2023/07/11 07:17:06;;;;;;;8.18;2.20;;;;;;;;;;5224180;28;20048;-72
2023/07/11 07:19:36;;;;;;;5.50;2.33;;;;;;;;;;5224625;28;20390;-71
2023/07/11 07:22:06;;;;;;;6.70;2.45;;;;;;;;;;5224619;28;20346;-71
2023/07/11 07:24:37;;;;;;;7.77;1.93;;;;;;;;;;5224865;28;20048;-72
2023/07/11 07:27:09;;;;;;;8.35;2.00;;;;;;;;;;5223523;28;20255;-72
2023/07/11 07:29:39;;;;;;;8.15;3.00;;;;;;;;;;5224354;28;20013;-71
2023/07/11 07:32:09;;;;;;;7.27;2.70;;;;;;;;;;5224487;28;20410;-71
2023/07/11 07:34:40;;;;;;;5.20;2.17;;;;;;;;;;5224647;28;20296;-71
2023/07/11 07:37:10;;;;;;;7.65;2.40;;;;;;;;;;5224014;28;20629;-71
2023/07/11 07:39:40;;;;;;;7.60;2.40;;;;;;;;;;5224224;28;20047;-72
2023/07/11 07:42:11;;;;;;;11.73;2.55;;;;;;;;;;5224276;28;20036;-72
2023/07/11 07:44:41;;;;;;;12.60;2.07;;;;;;;;;;5224446;28;20074;-72
2023/07/11 07:47:11;;;;;;;11.27;2.78;;;;;;;;;;5223949;28;20256;-71
2023/07/11 07:49:42;;;;;;;8.07;2.22;;;;;;;;;;5224223;28;20501;-71
2023/07/11 07:52:12;;;;;;;8.50;2.17;;;;;;;;;;5223937;28;20069;-71
2023/07/11 07:54:42;;;;;;;8.85;2.47;;;;;;;;;;5222784;28;20025;-71
2023/07/11 07:57:13;;;;;;;5.82;2.40;;;;;;;;;;5211893;28;20385;-71
2023/07/11 07:59:43;;;;;;;7.55;2.35;;;;;;;;;;5224083;28;20020;-71
2023/07/11 08:02:13;;;;;;;7.30;2.55;;;;;;;;;;5224194;28;20029;-71
2023/07/11 08:04:46;;;;;;;10.82;2.53;;;;;;;;;;5223690;28;20035;-72
2023/07/11 08:07:16;;;;;;;8.25;2.40;;;;;;;;;;5223759;28;20025;-72
2023/07/11 08:09:46;;;;;;;7.53;2.85;;;;;;;;;;5223686;28;20021;-72
2023/07/11 08:12:17;;;;;;;5.50;2.50;;;;;;;;;;5224255;28;20052;-72
2023/07/11 08:14:47;;;;;;;6.32;2.28;;;;;;;;;;5224231;28;20028;-72
2023/07/11 08:17:17;;;;;;;8.50;2.45;;;;;;;;;;5223213;28;20025;-72
2023/07/11 08:19:48;;;;;;;5.80;2.13;;;;;;;;;;5224134;28;20046;-72
2023/07/11 08:22:18;;;;;;;15.63;2.40;;;;;;;;;;5224117;28;20263;-72
2023/07/11 08:24:48;;;;;;;10.27;2.87;;;;;;;;;;5224081;28;20274;-72
2023/07/11 08:27:19;;;;;;;6.57;2.30;;;;;;;;;;5227500;28;20263;-72
2023/07/11 08:29:49;;;;;;;5.43;2.42;;;;;;;;;;5227465;28;20386;-72
2023/07/11 08:32:19;;;;;;;6.53;2.45;;;;;;;;;;5227734;28;20058;-72
2023/07/11 08:34:49;;;;;;;8.77;2.07;;;;;;;;;;5227769;28;20080;-73
2023/07/11 08:37:20;;;;;;;8.10;2.23;;;;;;;;;;5227414;28;20259;-72
2023/07/11 08:39:50;;;;;;;7.43;2.30;;;;;;;;;;5228070;28;20895;-73
2023/07/11 08:42:28;;;;;;;6.27;2.60;;;;;;;;;;5227512;28;20270;-73
2023/07/11 08:45:02;;;;;;;5.90;2.50;;;;;;;;;;5227940;28;20267;-72
2023/07/11 08:47:34;;;;;;;4.93;2.25;;;;;;;;;;5227418;28;20028;-71
2023/07/11 08:50:08;;;;;;;8.20;2.70;;;;;;;;;;5227719;28;20032;-72
2023/07/11 08:52:39;;;;;;;7.67;2.40;;;;;;;;;;5227428;28;20021;-71
2023/07/11 08:55:26;;;;;;;5.78;2.10;;;;;;;;;;5222064;28;20414;-72
2023/07/11 08:58:02;;;;;;;6.72;2.33;;;;;;;;;;5221190;28;20078;-72
2023/07/11 09:00:34;;;;;;;6.47;2.10;;;;;;;;;;5227376;28;20036;-72
2023/07/11 09:03:06;;;;;;;7.15;2.33;;;;;;;;;;5226614;28;20044;-72
2023/07/11 09:05:55;;;;;;;6.93;2.53;;;;;;;;;;5226934;28;20027;-72
2023/07/11 09:08:26;;;;;;;5.60;2.60;;;;;;;;;;5213715;28;20021;-72
2023/07/11 09:10:57;;;;;;;8.70;2.63;;;;;;;;;;5226709;28;20376;-72
2023/07/11 09:13:27;;;;;;;9.13;2.13;;;;;;;;;;5226576;28;20063;-72
2023/07/11 09:16:15;;;;;;;8.20;2.47;;;;;;;;;;5226539;28;20029;-72
2023/07/11 09:19:01;;;;;;;5.85;2.50;;;;;;;;;;5218921;28;20025;-73
2023/07/11 09:21:49;;;;;;;6.32;2.35;;;;;;;;;;5226975;28;20056;-73
2023/07/11 09:24:36;;;;;;;9.77;2.67;;;;;;;;;;5226708;28;20474;-72
2023/07/11 09:27:15;;;;;;;11.48;2.78;;;;;;;;;;5226128;28;20486;-72
2023/07/11 09:29:46;;;;;;;10.63;2.65;;;;;;;;;;5226587;28;20087;-73
2023/07/11 09:32:16;;;;;;;8.10;2.33;;;;;;;;;;5226593;28;20036;-72
2023/07/11 09:34:48;;;;;;;8.00;2.60;;;;;;;;;;5226792;28;20013;-72
2023/07/11 09:37:37;;;;;;;6.85;2.28;;;;;;;;;;5225519;28;20052;-72
2023/07/11 09:40:11;;;;;;;14.07;2.90;;;;;;;;;;5226294;28;20558;-72
2023/07/11 09:42:44;;;;;;;9.82;2.80;;;;;;;;;;5226042;28;20032;-72
2023/07/11 09:45:16;;;;;;;6.20;2.25;;;;;;;;;;5226271;28;20492;-72
2023/07/11 09:47:49;;;;;;;6.03;1.98;;;;;;;;;;5225937;28;20044;-72
2023/07/11 09:50:30;;;;;;;10.93;3.05;;;;;;;;;;5225973;28;20100;-72
2023/07/11 09:53:01;;;;;;;9.88;2.42;;;;;;;;;;5225505;28;20032;-72
2023/07/11 09:55:36;;;;;;;17.70;2.75;;;;;;;;;;5218068;28;20033;-73
2023/07/11 09:58:11;;;;;;;7.57;2.40;;;;;;;;;;5221311;28;20505;-72
2023/07/11 10:00:44;;;;;;;8.40;2.75;;;;;;;;;;5226229;28;20481;-72
2023/07/11 10:03:16;;;;;;;5.75;2.28;;;;;;;;;;5225754;28;20039;-72
2023/07/11 10:05:48;;;;;;;9.35;2.60;;;;;;;;;;5225853;28;20355;-72
2023/07/11 10:08:20;;;;;;;9.63;2.60;;;;;;;;;;5225614;28;20025;-73
2023/07/11 10:10:52;;;;;;;5.65;2.47;;;;;;;;;;5225593;28;20024;-72
2023/07/11 10:13:22;;;;;;;8.85;3.03;;;;;;;;;;5225832;28;20100;-72
2023/07/11 10:15:54;;;;;;;9.05;2.80;;;;;;;;;;5225096;28;20151;-72
2023/07/11 10:18:25;;;;;;;5.90;2.38;;;;;;;;;;5225415;28;20017;-72
2023/07/11 10:20:58;;;;;;;8.73;2.70;;;;;;;;;;5225593;28;20100;-72
2023/07/11 10:23:28;;;;;;;7.57;2.50;;;;;;;;;;5225796;28;20029;-72
2023/07/11 10:26:09;;;;;;;12.73;2.50;;;;;;;;;;5224996;28;20398;-72
2023/07/11 10:28:43;;;;;;;9.43;2.38;;;;;;;;;;5225465;28;20033;-72
2023/07/11 10:31:16;;;;;;;11.43;2.50;;;;;;;;;;5225427;28;20017;-73
2023/07/11 10:33:49;;;;;;;7.00;2.33;;;;;;;;;;5225356;28;20021;-72
2023/07/11 10:36:21;;;;;;;8.00;2.95;;;;;;;;;;5225026;28;20025;-72
2023/07/11 10:38:54;;;;;;;9.48;3.15;;;;;;;;;;5224724;28;20021;-72
2023/07/11 10:41:27;;;;;;;13.35;2.90;;;;;;;;;;5225733;28;20100;-72
2023/07/11 10:43:58;;;;;;;10.35;2.40;;;;;;;;;;5225130;28;20096;-72
2023/07/11 10:46:34;;;;;;;11.82;3.15;;;;;;;;;;5224852;28;20092;-72
2023/07/11 10:49:08;;;;;;;8.70;2.60;;;;;;;;;;5224871;28;20021;-72
2023/07/11 10:51:43;;;;;;;7.60;2.70;;;;;;;;;;5224817;28;20021;-72
2023/07/11 10:54:13;;;;;;;;;;;;;;;;;;5225782;28;20029;-72
2023/07/11 10:56:46;;;;;;;11.63;2.47;;;;;;;;;;5211174;28;19931;-72
2023/07/11 10:59:18;;;;;;;9.68;3.03;;;;;;;;;;5225025;28;20028;-72
2023/07/11 11:01:55;;;;;;;11.90;3.10;;;;;;;;;;5224613;28;20021;-72
2023/07/11 11:04:45;;;;;;;7.25;2.55;;;;;;;;;;5224817;28;20021;-72
2023/07/11 11:07:22;;;;;;;7.97;2.83;;;;;;;;;;5224485;28;20017;-72
2023/07/11 11:09:58;;;;;;;9.18;2.88;;;;;;;;;;5224318;28;20111;-72
2023/07/11 11:12:29;;;;;;;8.07;2.97;;;;;;;;;;5224639;28;20490;-72
2023/07/11 11:15:18;;;;;;;8.77;2.20;;;;;;;;;;5224640;28;20028;-72
2023/07/11 11:18:08;;;;;;;8.55;2.65;;;;;;;;;;5223962;28;20021;-72
2023/07/11 11:20:54;;;;;;;7.38;2.70;;;;;;;;;;5224167;28;20086;-72
2023/07/11 11:23:43;;;;;;;10.45;2.72;;;;;;;;;;5224677;28;20041;-72
2023/07/11 11:26:20;;;;;;;8.88;2.47;;;;;;;;;;5223961;28;20021;-72
2023/07/11 11:28:58;;;;;;;6.05;2.83;;;;;;;;;;5223978;28;20099;-72
2023/07/11 11:31:29;;;;;;;10.65;2.80;;;;;;;;;;5224499;28;20021;-72
2023/07/11 11:34:10;;;;;;;5.68;2.90;;;;;;;;;;5224303;28;20355;-72
2023/07/11 11:36:59;;;;;;;10.68;3.28;;;;;;;;;;5223913;28;20075;-73
2023/07/11 11:39:29;;;;;;;6.18;2.40;;;;;;;;;;5224135;28;20021;-73
2023/07/11 11:42:02;;;;;;;7.50;2.27;;;;;;;;;;5224285;28;20505;-73
2023/07/11 11:44:32;;;;;;;4.40;2.40;;;;;;;;;;5224451;28;20625;-72
2023/07/11 11:47:03;;;;;;;8.90;3.43;;;;;;;;;;5223847;28;20017;-72
2023/07/11 11:49:34;;;;;;;8.70;2.83;;;;;;;;;;5223804;28;20718;-72
2023/07/11 11:52:05;;;;;;;6.80;2.90;;;;;;;;;;5224050;28;20025;-73
2023/07/11 11:54:38;;;;;;;7.47;2.70;;;;;;;;;;5223760;28;20914;-73
2023/07/11 11:57:10;;;;;;;8.23;2.75;;;;;;;;;;5224019;28;20017;-72
2023/07/11 11:59:40;;;;;;;8.13;3.25;;;;;;;;;;5224221;28;20021;-72
2023/07/11 12:02:12;;;;;;;8.15;2.40;;;;;;;;;;5228030;28;20083;-72
2023/07/11 12:05:00;;;;;;;11.10;2.80;;;;;;;;;;5228056;28;20178;-72
2023/07/11 12:07:33;;;;;;;9.13;2.83;;;;;;;;;;5227938;28;20533;-72
2023/07/11 12:10:09;;;;;;;6.93;2.55;;;;;;;;;;5227883;28;20024;-72
2023/07/11 12:12:40;;;;;;;12.90;2.85;;;;;;;;;;5226709;28;20013;-72
2023/07/11 12:15:10;;;;;;;5.65;2.20;;;;;;;;;;5227953;28;20382;-73
2023/07/11 12:17:43;;;;;;;6.97;2.72;;;;;;;;;;5227417;28;20021;-72
2023/07/11 12:20:18;;;;;;;6.05;2.25;;;;;;;;;;5227712;28;20398;-72
2023/07/11 12:22:49;;;;;;;7.63;2.40;;;;;;;;;;5227779;28;20433;-72
2023/07/11 12:25:20;;;;;;;6.27;2.67;;;;;;;;;;5227602;28;20028;-72
2023/07/11 12:27:50;;;;;;;9.00;2.35;;;;;;;;;;5227580;28;20302;-73
2023/07/11 12:30:40;;;;;;;3.73;2.30;;;;;;;;;;5227601;28;20060;-72
2023/07/11 12:33:26;;;;;;;5.75;2.65;;;;;;;;;;5227820;28;20389;-72
2023/07/11 12:36:00;;;;;;;4.55;2.00;;;;;;;;;;5227024;28;20024;-73
2023/07/11 12:38:34;;;;;;;9.90;3.10;;;;;;;;;;5227478;28;20017;-73
2023/07/11 12:41:11;;;;;;;4.67;2.10;;;;;;;;;;5227825;28;20027;-73
2023/07/11 12:43:45;;;;;;;5.28;1.90;;;;;;;;;;5227205;28;20028;-73
2023/07/11 12:46:34;;;;;;;5.78;2.45;;;;;;;;;;5227128;28;20025;-72
2023/07/11 12:49:13;;;;;;;8.02;3.05;;;;;;;;;;5227197;28;20017;-72
2023/07/11 12:51:43;;;;;;;5.35;1.90;;;;;;;;;;5227224;28;20031;-72
2023/07/11 12:54:15;;;;;;;8.93;2.13;;;;;;;;;;5226872;28;20470;-73
2023/07/11 12:56:46;;;;;;;14.32;2.63;;;;;;;;;;5213523;28;20268;-72
2023/07/11 12:59:36;;;;;;;7.60;2.67;;;;;;;;;;5227351;28;20398;-72
2023/07/11 13:02:07;;;;;;;8.15;2.63;;;;;;;;;;5226991;28;20121;-72
2023/07/11 13:04:41;;;;;;;7.63;2.10;;;;;;;;;;5226534;28;20032;-73
2023/07/11 13:07:13;;;;;;;3.58;2.08;;;;;;;;;;5226784;28;20029;-72
2023/07/11 13:09:48;;;;;;;6.40;2.35;;;;;;;;;;5226692;28;20028;-73
2023/07/11 13:12:22;;;;;;;7.18;2.08;;;;;;;;;;5225940;28;20021;-72
2023/07/11 13:14:52;;;;;;;8.87;2.80;;;;;;;;;;5226792;28;20021;-73
2023/07/11 13:17:24;;;;;;;4.65;2.17;;;;;;;;;;5226414;28;20021;-73
2023/07/11 13:19:57;;;;;;;4.45;2.00;;;;;;;;;;5226716;28;20063;-72
2023/07/11 13:22:28;;;;;;;8.23;2.45;;;;;;;;;;5227107;28;20455;-73
2023/07/11 13:24:58;;;;;;;13.93;2.35;;;;;;;;;;5226834;28;20017;-73
2023/07/11 13:27:30;;;;;;;4.15;2.50;;;;;;;;;;5225940;28;20043;-73
2023/07/11 13:30:00;;;;;;;6.30;2.22;;;;;;;;;;5226511;28;20547;-73
2023/07/11 13:32:37;;;;;;;6.25;2.25;;;;;;;;;;5226425;28;20103;-72
2023/07/11 13:35:24;;;;;;;4.65;2.20;;;;;;;;;;5226372;28;20024;-73
2023/07/11 13:37:54;;;;;;;4.47;1.92;;;;;;;;;;5226079;28;20063;-73
2023/07/11 13:40:43;;;;;;;7.63;2.50;;;;;;;;;;5225037;28;20486;-73
2023/07/11 13:43:16;;;;;;;12.43;2.30;;;;;;;;;;5226248;28;20263;-73
2023/07/11 13:45:48;;;;;;;10.30;2.30;;;;;;;;;;5226172;28;20033;-73
2023/07/11 13:48:21;;;;;;;8.70;2.53;;;;;;;;;;5224669;28;20360;-73
2023/07/11 13:51:11;;;;;;;4.40;2.13;;;;;;;;;;5226091;28;20017;-73
2023/07/11 13:53:44;;;;;;;4.28;1.92;;;;;;;;;;5226012;28;20013;-72
2023/07/11 13:56:14;;;;;;;3.28;1.95;;;;;;;;;;5212107;28;20040;-73
2023/07/11 13:58:45;;;;;;;7.28;2.40;;;;;;;;;;5225676;28;20025;-72
2023/07/11 14:01:17;;;;;;;3.88;2.20;;;;;;;;;;5226127;28;20394;-73
2023/07/11 14:03:48;;;;;;;6.05;2.20;;;;;;;;;;5226280;28;20077;-73
2023/07/11 14:06:19;;;;;;;7.40;2.22;;;;;;;;;;5225526;28;20017;-74
2023/07/11 14:08:49;;;;;;;3.63;2.00;;;;;;;;;;5225860;28;20116;-72
2023/07/11 14:11:38;;;;;;;4.57;2.10;;;;;;;;;;5225059;28;20104;-72
2023/07/11 14:14:11;;;;;;;8.10;2.42;;;;;;;;;;5225957;28;20433;-73
2023/07/11 14:16:41;;;;;;;5.18;2.35;;;;;;;;;;5225172;28;20048;-73
2023/07/11 14:19:32;;;;;;;9.15;2.35;;;;;;;;;;5225459;28;20052;-72
2023/07/11 14:22:10;;;;;;;5.78;2.40;;;;;;;;;;5226100;28;20501;-72
2023/07/11 14:24:42;;;;;;;6.65;2.20;;;;;;;;;;5225380;28;20021;-72
2023/07/11 14:27:13;;;;;;;6.85;2.50;;;;;;;;;;5225498;28;20009;-74
2023/07/11 14:29:43;;;;;;;8.57;2.42;;;;;;;;;;5225869;28;20025;-72
2023/07/11 14:32:18;;;;;;;5.35;1.85;;;;;;;;;;5225078;28;20017;-73
2023/07/11 14:34:48;;;;;;;5.13;2.45;;;;;;;;;;5225655;28;20024;-72
2023/07/11 14:37:18;;;;;;;6.20;2.33;;;;;;;;;;5225052;28;20021;-73
2023/07/11 14:39:49;;;;;;;7.07;2.20;;;;;;;;;;5225570;28;20265;-72
2023/07/11 14:42:36;;;;;;;5.63;2.28;;;;;;;;;;5225313;28;20263;-72
2023/07/11 14:45:12;;;;;;;8.98;2.28;;;;;;;;;;5225062;28;20025;-72
2023/07/11 14:47:43;;;;;;;6.63;2.10;;;;;;;;;;5225079;28;20074;-72
2023/07/11 14:50:14;;;;;;;5.32;1.98;;;;;;;;;;5224982;28;20025;-73
2023/07/11 14:52:44;;;;;;;4.10;2.20;;;;;;;;;;5225485;28;20023;-72
2023/07/11 14:55:16;;;;;;;6.75;2.47;;;;;;;;;;5218612;28;20035;-73
2023/07/11 14:57:48;;;;;;;7.40;2.53;;;;;;;;;;5217309;28;20074;-72
2023/07/11 15:00:19;;;;;;;6.65;2.80;;;;;;;;;;5225071;28;20029;-72
2023/07/11 15:02:50;;;;;;;7.03;2.10;;;;;;;;;;5224833;28;20051;-72
2023/07/11 15:05:22;;;;;;;4.78;2.03;;;;;;;;;;5224611;28;20028;-72
2023/07/11 15:07:56;;;;;;;4.55;1.88;;;;;;;;;;5224291;28;20021;-72
2023/07/11 15:10:26;;;;;;;9.98;2.53;;;;;;;;;;5224583;28;20036;-72